createdAt,value
2018-08-11T00:01:46.946Z,21.85
2018-08-11T00:04:15.918Z,21.93
2018-08-11T00:06:45.529Z,21.73
2018-08-11T00:09:14.697Z,21.62
2018-08-11T00:11:42.982Z,21.58
2018-08-11T00:14:11.270Z,21.39
2018-08-11T00:16:40.242Z,21.28
2018-08-11T00:19:08.344Z,21.43
2018-08-11T00:21:36.455Z,21.42
2018-08-11T00:24:04.647Z,21.36
2018-08-11T00:26:32.722Z,21.21
2018-08-11T00:29:01.379Z,21.08
2018-08-11T00:31:30.002Z,21.09
2018-08-11T00:33:58.302Z,20.94
2018-08-11T00:36:26.527Z,21.20
2018-08-11T00:38:54.637Z,21.22
2018-08-11T00:41:22.733Z,20.89
2018-08-11T00:43:50.951Z,20.97
2018-08-11T00:46:19.087Z,20.90
2018-08-11T00:48:47.241Z,21.20
2018-08-11T00:51:15.386Z,21.17
2018-08-11T00:53:43.517Z,21.27
2018-08-11T00:56:11.730Z,21.07
2018-08-11T00:58:39.820Z,20.94
2018-08-11T01:01:08.029Z,21.11
2018-08-11T01:03:36.074Z,21.09
2018-08-11T01:06:04.631Z,21.30
2018-08-11T01:08:32.873Z,21.18
2018-08-11T01:11:00.961Z,20.95
2018-08-11T01:13:29.723Z,21.44
2018-08-11T01:15:57.808Z,21.52
2018-08-11T01:18:26.052Z,21.75
2018-08-11T01:20:54.189Z,21.51
2018-08-11T01:23:22.226Z,21.51
2018-08-11T01:25:56.641Z,21.19
2018-08-11T01:28:24.754Z,20.85
2018-08-11T01:30:53.094Z,20.91
2018-08-11T01:33:21.781Z,20.94
2018-08-11T01:35:50.761Z,20.84
2018-08-11T01:38:19.449Z,21.07
2018-08-11T01:40:47.882Z,20.77
2018-08-11T01:43:16.075Z,20.91
2018-08-11T01:45:44.391Z,20.66
2018-08-11T01:48:12.515Z,20.32
2018-08-11T01:50:40.634Z,20.91
2018-08-11T01:53:08.778Z,20.76
2018-08-11T01:55:36.908Z,20.76
2018-08-11T01:58:05.064Z,20.61
2018-08-11T02:00:33.129Z,20.74
2018-08-11T02:03:01.811Z,20.74
2018-08-11T02:05:29.935Z,20.43
2018-08-11T02:07:58.029Z,20.35
2018-08-11T02:10:26.676Z,20.40
2018-08-11T02:12:54.902Z,20.34
2018-08-11T02:15:23.694Z,20.16
2018-08-11T02:17:51.771Z,20.32
2018-08-11T02:20:20.252Z,20.34
2018-08-11T02:22:49.946Z,20.56
2018-08-11T02:25:18.015Z,19.98
2018-08-11T02:27:46.096Z,20.20
2018-08-11T02:30:16.599Z,20.23
2018-08-11T02:32:44.724Z,20.18
2018-08-11T02:35:13.827Z,20.17
2018-08-11T02:37:42.487Z,20.22
2018-08-11T02:40:12.833Z,20.17
2018-08-11T02:42:41.130Z,19.93
2018-08-11T02:45:11.412Z,20.06
2018-08-11T02:47:39.618Z,20.03
2018-08-11T02:50:09.410Z,20.13
2018-08-11T02:52:37.790Z,20.03
2018-08-11T02:55:06.061Z,19.94
2018-08-11T02:57:34.322Z,19.98
2018-08-11T03:00:02.574Z,20.23
2018-08-11T03:02:30.765Z,20.15
2018-08-11T03:04:58.856Z,20.19
2018-08-11T03:07:26.968Z,19.97
2018-08-11T03:09:55.074Z,19.84
2018-08-11T03:12:23.641Z,19.67
2018-08-11T03:14:51.726Z,19.97
2018-08-11T03:17:21.396Z,19.67
2018-08-11T03:19:49.591Z,19.94
2018-08-11T03:22:18.677Z,19.58
2018-08-11T03:24:47.083Z,19.77
2018-08-11T03:27:16.295Z,19.57
2018-08-11T03:29:45.022Z,19.64
2018-08-11T03:32:13.691Z,19.73
2018-08-11T03:34:41.807Z,19.80
2018-08-11T03:37:09.967Z,19.86
2018-08-11T03:39:38.214Z,19.43
2018-08-11T03:42:06.358Z,19.78
2018-08-11T03:44:34.706Z,19.59
2018-08-11T03:47:03.344Z,19.28
2018-08-11T03:49:31.439Z,19.47
2018-08-11T03:51:59.554Z,19.54
2018-08-11T03:54:27.887Z,19.46
2018-08-11T03:56:56.702Z,19.39
2018-08-11T03:59:24.780Z,19.55
2018-08-11T04:01:52.967Z,19.68
2018-08-11T04:04:21.413Z,19.64
2018-08-11T04:06:49.747Z,19.41
2018-08-11T04:09:17.795Z,19.73
2018-08-11T04:11:46.418Z,19.49
2018-08-11T04:14:14.493Z,19.29
2018-08-11T04:16:42.928Z,19.07
2018-08-11T04:19:10.984Z,19.40
2018-08-11T04:21:39.091Z,19.57
2018-08-11T04:24:07.870Z,19.33
2018-08-11T04:26:36.693Z,19.15
2018-08-11T04:29:04.793Z,19.04
2018-08-11T04:31:33.117Z,19.23
2018-08-11T04:34:01.226Z,19.39
2018-08-11T04:36:29.452Z,19.40
2018-08-11T04:38:57.837Z,19.12
2018-08-11T04:41:25.934Z,19.50
2018-08-11T04:43:53.991Z,19.36
2018-08-11T04:46:22.222Z,18.97
2018-08-11T04:48:50.333Z,19.03
2018-08-11T04:51:18.648Z,18.95
2018-08-11T04:53:46.790Z,19.15
2018-08-11T04:56:14.911Z,18.97
2018-08-11T04:58:43.030Z,19.19
2018-08-11T05:01:11.245Z,19.12
2018-08-11T05:03:40.329Z,19.03
2018-08-11T05:06:08.571Z,19.08
2018-08-11T05:08:36.784Z,18.96
2018-08-11T05:11:05.246Z,18.70
2018-08-11T05:13:33.278Z,18.86
2018-08-11T05:16:01.426Z,19.07
2018-08-11T05:18:29.469Z,19.01
2018-08-11T05:20:57.566Z,19.16
2018-08-11T05:23:25.649Z,19.17
2018-08-11T05:25:53.759Z,19.30
2018-08-11T05:28:21.811Z,19.33
2018-08-11T05:30:50.064Z,19.13
2018-08-11T05:33:18.113Z,19.43
2018-08-11T05:35:46.183Z,19.50
2018-08-11T05:38:14.321Z,19.84
2018-08-11T05:40:42.644Z,19.65
2018-08-11T05:43:10.755Z,19.76
2018-08-11T05:45:38.957Z,19.42
2018-08-11T05:48:07.146Z,19.88
2018-08-11T05:50:35.189Z,19.73
2018-08-11T05:53:03.332Z,20.02
2018-08-11T05:55:31.561Z,20.23
2018-08-11T05:57:59.872Z,20.26
2018-08-11T06:00:28.047Z,20.28
2018-08-11T06:02:56.137Z,20.24
2018-08-11T06:05:24.535Z,20.30
2018-08-11T06:07:52.663Z,20.18
2018-08-11T06:10:20.819Z,20.11
2018-08-11T06:12:48.910Z,20.05
2018-08-11T06:15:17.220Z,20.22
2018-08-11T06:17:45.278Z,20.38
2018-08-11T06:20:13.381Z,20.01
2018-08-11T06:22:41.447Z,20.02
2018-08-11T06:25:10.747Z,20.09
2018-08-11T06:27:39.026Z,20.24
2018-08-11T06:30:08.754Z,20.34
2018-08-11T06:32:37.115Z,20.31
2018-08-11T06:35:05.937Z,20.07
2018-08-11T06:37:34.036Z,19.90
2018-08-11T06:40:02.066Z,20.14
2018-08-11T06:42:30.214Z,20.45
2018-08-11T06:44:58.345Z,19.84
2018-08-11T06:47:26.418Z,19.87
2018-08-11T06:49:54.561Z,19.86
2018-08-11T06:52:22.649Z,19.89
2018-08-11T06:54:50.843Z,19.58
2018-08-11T06:57:19.038Z,20.18
2018-08-11T06:59:47.178Z,20.15
2018-08-11T07:02:15.354Z,20.11
2018-08-11T07:04:43.485Z,19.85
2018-08-11T07:07:11.651Z,20.45
2018-08-11T07:09:40.210Z,20.32
2018-08-11T07:12:08.546Z,20.22
2018-08-11T07:14:36.605Z,20.76
2018-08-11T07:17:04.722Z,20.34
2018-08-11T07:19:32.794Z,20.06
2018-08-11T07:22:01.081Z,20.79
2018-08-11T07:24:29.142Z,20.58
2018-08-11T07:26:57.233Z,20.94
2018-08-11T07:29:25.368Z,21.18
2018-08-11T07:31:53.494Z,20.97
2018-08-11T07:34:21.755Z,20.99
2018-08-11T07:36:50.635Z,20.65
2018-08-11T07:39:18.750Z,20.37
2018-08-11T07:41:46.897Z,21.02
2018-08-11T07:44:15.070Z,21.69
2018-08-11T07:46:43.147Z,21.92
2018-08-11T07:49:11.202Z,21.28
2018-08-11T07:51:39.257Z,21.20
2018-08-11T07:54:07.323Z,20.95
2018-08-11T07:56:35.412Z,21.47
2018-08-11T07:59:03.459Z,21.35
2018-08-11T08:01:31.521Z,21.03
2018-08-11T08:03:59.627Z,21.18
2018-08-11T08:06:27.790Z,21.11
2018-08-11T08:08:55.843Z,21.05
2018-08-11T08:11:23.959Z,21.16
2018-08-11T08:13:52.054Z,21.18
2018-08-11T08:16:20.962Z,20.80
2018-08-11T08:18:49.050Z,21.25
2018-08-11T08:21:17.155Z,21.64
2018-08-11T08:23:45.219Z,21.87
2018-08-11T08:26:13.395Z,21.83
2018-08-11T08:28:41.478Z,21.54
2018-08-11T08:31:09.687Z,21.61
2018-08-11T08:33:37.779Z,21.60
2018-08-11T08:36:05.809Z,21.56
2018-08-11T08:38:34.142Z,21.10
2018-08-11T08:41:02.251Z,21.00
2018-08-11T08:43:30.691Z,21.10
2018-08-11T08:45:58.902Z,21.57
2018-08-11T08:48:27.046Z,21.66
2018-08-11T08:50:55.111Z,21.85
2018-08-11T08:53:23.193Z,21.62
2018-08-11T08:55:51.208Z,21.86
2018-08-11T08:58:19.302Z,22.13
2018-08-11T09:00:47.433Z,22.30
2018-08-11T09:03:15.562Z,21.98
2018-08-11T09:05:43.651Z,21.91
2018-08-11T09:08:11.743Z,21.90
2018-08-11T09:10:39.864Z,21.78
2018-08-11T09:13:07.913Z,21.70
2018-08-11T09:15:36.139Z,21.89
2018-08-11T09:18:04.566Z,22.15
2018-08-11T09:20:32.669Z,22.31
2018-08-11T09:23:00.736Z,22.00
2018-08-11T09:25:29.131Z,21.92
2018-08-11T09:27:57.286Z,22.07
2018-08-11T09:30:26.496Z,22.48
2018-08-11T09:32:54.601Z,23.23
2018-08-11T09:35:22.694Z,23.24
2018-08-11T09:37:51.307Z,22.95
2018-08-11T09:40:19.693Z,22.93
2018-08-11T09:42:48.194Z,22.65
2018-08-11T09:45:17.191Z,22.88
2018-08-11T09:47:45.686Z,23.72
2018-08-11T09:50:13.749Z,23.71
2018-08-11T09:52:42.424Z,23.95
2018-08-11T09:55:10.600Z,24.08
2018-08-11T09:57:38.715Z,24.54
2018-08-11T10:00:08.622Z,24.31
2018-08-11T10:02:36.670Z,24.66
2018-08-11T10:05:05.438Z,23.87
2018-08-11T10:07:34.107Z,23.92
2018-08-11T10:10:02.241Z,24.40
2018-08-11T10:12:30.568Z,24.31
2018-08-11T10:14:59.629Z,23.65
2018-08-11T10:17:28.271Z,23.21
2018-08-11T10:19:56.388Z,23.38
2018-08-11T10:22:26.344Z,23.15
2018-08-11T10:24:54.705Z,23.79
2018-08-11T10:27:22.798Z,24.17
2018-08-11T10:29:50.991Z,23.48
2018-08-11T10:32:19.109Z,23.62
2018-08-11T10:34:47.167Z,23.77
2018-08-11T10:37:15.292Z,24.37
2018-08-11T10:39:43.334Z,24.23
2018-08-11T10:42:11.387Z,24.33
2018-08-11T10:44:39.563Z,24.48
2018-08-11T10:47:07.775Z,24.13
2018-08-11T10:49:35.823Z,23.41
2018-08-11T10:52:03.990Z,24.59
2018-08-11T10:54:32.081Z,24.70
2018-08-11T10:57:00.224Z,24.47
2018-08-11T10:59:28.462Z,25.61
2018-08-11T11:01:56.534Z,24.99
2018-08-11T11:04:24.653Z,24.70
2018-08-11T11:06:52.758Z,24.95
2018-08-11T11:09:21.657Z,24.83
2018-08-11T11:11:49.799Z,24.72
2018-08-11T11:14:17.868Z,24.81
2018-08-11T11:16:46.005Z,25.43
2018-08-11T11:19:14.230Z,24.52
2018-08-11T11:21:42.520Z,24.01
2018-08-11T11:24:10.770Z,23.89
2018-08-11T11:26:38.845Z,25.51
2018-08-11T11:29:06.904Z,26.63
2018-08-11T11:31:34.933Z,27.19
2018-08-11T11:34:03.015Z,26.84
2018-08-11T11:36:31.111Z,27.11
2018-08-11T11:38:59.246Z,28.16
2018-08-11T11:41:27.296Z,28.58
2018-08-11T11:43:55.367Z,29.46
2018-08-11T11:46:23.422Z,28.10
2018-08-11T11:48:52.539Z,28.55
2018-08-11T11:51:20.698Z,29.34
2018-08-11T11:53:48.811Z,29.46
2018-08-11T11:56:17.061Z,29.65
2018-08-11T11:58:45.658Z,31.02
2018-08-11T12:01:13.891Z,30.54
2018-08-11T12:03:42.224Z,32.07
2018-08-11T12:06:10.327Z,32.14
2018-08-11T12:08:38.375Z,32.08
2018-08-11T12:11:06.508Z,33.05
2018-08-11T12:13:34.564Z,32.17
2018-08-11T12:16:02.705Z,33.05
2018-08-11T12:18:31.037Z,33.39
2018-08-11T12:20:59.262Z,34.72
2018-08-11T12:23:27.319Z,35.21
2018-08-11T12:25:55.685Z,35.12
2018-08-11T12:28:23.751Z,36.26
2018-08-11T12:30:52.002Z,36.36
2018-08-11T12:33:20.095Z,35.18
2018-08-11T12:35:48.762Z,37.29
2018-08-11T12:38:17.194Z,38.00
2018-08-11T12:40:45.340Z,37.88
2018-08-11T12:43:13.502Z,38.56
2018-08-11T12:45:41.980Z,35.83
2018-08-11T12:48:10.271Z,35.42
2018-08-11T12:50:38.563Z,36.58
2018-08-11T12:53:06.670Z,37.71
2018-08-11T12:55:34.985Z,37.99
2018-08-11T12:58:04.199Z,40.85
2018-08-11T13:00:32.827Z,35.60
2018-08-11T13:03:01.168Z,34.07
2018-08-11T13:05:29.534Z,37.93
2018-08-11T13:07:57.717Z,36.38
2018-08-11T13:10:26.106Z,40.74
2018-08-11T13:12:54.347Z,40.42
2018-08-11T13:15:22.618Z,41.12
2018-08-11T13:17:50.693Z,41.49
2018-08-11T13:20:18.834Z,42.10
2018-08-11T13:22:47.327Z,39.86
2018-08-11T13:25:15.415Z,43.60
2018-08-11T13:27:43.723Z,37.47
2018-08-11T13:30:11.951Z,41.00
2018-08-11T13:32:40.060Z,43.61
2018-08-11T13:35:08.201Z,44.18
2018-08-11T13:37:36.319Z,43.60
2018-08-11T13:40:04.659Z,43.80
2018-08-11T13:42:32.884Z,43.39
2018-08-11T13:45:01.064Z,35.33
2018-08-11T13:47:29.433Z,37.22
2018-08-11T13:49:57.592Z,42.93
2018-08-11T13:52:25.769Z,44.92
2018-08-11T13:54:53.990Z,37.98
2018-08-11T13:57:22.670Z,42.67
2018-08-11T13:59:50.927Z,43.76
2018-08-11T14:02:18.996Z,43.19
2018-08-11T14:04:47.245Z,43.95
2018-08-11T14:07:15.559Z,43.68
2018-08-11T14:09:43.837Z,44.03
2018-08-11T14:12:12.422Z,44.56
2018-08-11T14:17:16.986Z,46.10
2018-08-11T14:19:46.739Z,47.21
2018-08-11T14:22:15.334Z,45.50
2018-08-11T14:24:43.447Z,46.32
2018-08-11T14:27:11.547Z,37.00
2018-08-11T14:29:39.814Z,38.06
2018-08-11T14:32:07.936Z,35.13
2018-08-11T14:34:36.148Z,38.05
2018-08-11T14:37:12.106Z,43.09
2018-08-11T14:39:40.362Z,45.32
2018-08-11T14:42:08.525Z,43.66
2018-08-11T14:44:36.817Z,36.57
2018-08-11T14:47:05.069Z,39.16
2018-08-11T14:49:33.092Z,42.14
2018-08-11T14:52:01.274Z,46.44
2018-08-11T14:54:29.410Z,47.42
2018-08-11T14:56:57.708Z,46.68
2018-08-11T14:59:25.906Z,36.28
2018-08-11T15:01:54.480Z,42.09
2018-08-11T15:04:26.903Z,42.72
2018-08-11T15:06:55.020Z,43.65
2018-08-11T15:09:23.831Z,40.84
2018-08-11T15:11:53.551Z,34.89
2018-08-11T15:14:22.799Z,39.22
2018-08-11T15:16:50.870Z,45.43
2018-08-11T15:19:18.943Z,40.90
2018-08-11T15:21:47.059Z,44.23
2018-08-11T15:24:15.310Z,46.47
2018-08-11T15:26:43.411Z,45.60
2018-08-11T15:29:11.784Z,46.49
2018-08-11T15:31:39.934Z,44.83
2018-08-11T15:34:08.223Z,45.70
2018-08-11T15:36:36.675Z,45.49
2018-08-11T15:39:09.072Z,45.15
2018-08-11T15:41:37.346Z,45.32
2018-08-11T15:44:05.627Z,46.59
2018-08-11T15:46:33.765Z,45.52
2018-08-11T15:49:01.960Z,46.25
2018-08-11T15:51:30.192Z,45.38
2018-08-11T15:53:58.443Z,46.29
2018-08-11T15:56:26.553Z,46.17
2018-08-11T15:58:55.114Z,46.37
2018-08-11T16:01:23.475Z,45.70
2018-08-11T16:03:51.624Z,43.98
2018-08-11T16:06:20.298Z,42.41
2018-08-11T16:08:48.593Z,43.36
2018-08-11T16:11:16.739Z,43.20
2018-08-11T16:13:44.903Z,44.26
2018-08-11T16:16:15.236Z,40.73
2018-08-11T16:18:43.386Z,42.38
2018-08-11T16:21:11.620Z,42.01
2018-08-11T16:23:39.812Z,42.34
2018-08-11T16:26:08.123Z,42.75
2018-08-11T16:28:36.326Z,42.14
2018-08-11T16:31:04.441Z,38.55
2018-08-11T16:33:38.914Z,35.03
2018-08-11T16:36:07.150Z,34.39
2018-08-11T16:38:36.074Z,34.30
2018-08-11T16:41:05.880Z,34.27
2018-08-11T16:43:34.009Z,33.10
2018-08-11T16:46:02.556Z,32.34
2018-08-11T16:48:30.725Z,32.26
2018-08-11T16:50:58.906Z,32.63
2018-08-11T16:53:27.163Z,31.98
2018-08-11T16:55:55.253Z,31.96
2018-08-11T16:58:23.488Z,31.53
2018-08-11T17:00:51.747Z,31.81
2018-08-11T17:03:19.741Z,31.15
2018-08-11T17:05:47.976Z,30.99
2018-08-11T17:08:15.974Z,31.55
2018-08-11T17:10:44.040Z,31.23
2018-08-11T17:13:12.124Z,31.09
2018-08-11T17:15:40.243Z,30.59
2018-08-11T17:18:08.291Z,30.82
2018-08-11T17:20:36.381Z,30.59
2018-08-11T17:23:04.494Z,30.35
2018-08-11T17:25:32.565Z,30.19
2018-08-11T17:28:00.995Z,30.08
2018-08-11T17:30:29.041Z,30.32
2018-08-11T17:32:57.126Z,30.10
2018-08-11T17:35:25.188Z,30.04
2018-08-11T17:37:53.407Z,29.45
2018-08-11T17:40:22.333Z,29.39
2018-08-11T17:42:50.853Z,29.17
2018-08-11T17:45:18.935Z,29.06
2018-08-11T17:47:47.633Z,29.31
2018-08-11T17:50:15.755Z,28.60
2018-08-11T17:52:43.882Z,28.97
2018-08-11T17:55:12.067Z,29.24
2018-08-11T17:57:40.319Z,28.90
2018-08-11T18:00:08.517Z,28.60
2018-08-11T18:02:36.790Z,28.77
2018-08-11T18:05:06.755Z,28.42
2018-08-11T18:07:35.583Z,28.45
2018-08-11T18:10:03.807Z,28.27
2018-08-11T18:12:32.457Z,28.16
2018-08-11T18:15:00.530Z,28.26
2018-08-11T18:17:28.837Z,28.16
2018-08-11T18:19:57.202Z,28.01
2018-08-11T18:22:25.353Z,28.32
2018-08-11T18:24:53.604Z,27.92
2018-08-11T18:27:21.848Z,27.79
2018-08-11T18:29:49.995Z,27.77
2018-08-11T18:32:18.125Z,27.75
2018-08-11T18:34:46.487Z,27.79
2018-08-11T18:37:14.536Z,27.45
2018-08-11T18:39:43.661Z,27.21
2018-08-11T18:42:12.210Z,27.11
2018-08-11T18:44:40.913Z,27.07
2018-08-11T18:47:09.045Z,26.77
2018-08-11T18:49:37.115Z,26.86
2018-08-11T18:52:05.316Z,26.76
2018-08-11T18:54:33.920Z,26.88
2018-08-11T18:57:02.130Z,26.50
2018-08-11T18:59:30.350Z,26.49
2018-08-11T19:01:58.462Z,26.55
2018-08-11T19:04:26.646Z,26.52
2018-08-11T19:06:54.806Z,26.50
2018-08-11T19:09:23.649Z,26.23
2018-08-11T19:11:52.033Z,26.47
2018-08-11T19:14:20.683Z,26.42
2018-08-11T19:16:49.026Z,26.45
2018-08-11T19:19:17.166Z,26.35
2018-08-11T19:21:45.441Z,26.38
2018-08-11T19:24:13.605Z,26.40
2018-08-11T19:26:41.711Z,26.21
2018-08-11T19:29:09.857Z,26.41
2018-08-11T19:31:38.059Z,26.40
2018-08-11T19:34:06.362Z,26.30
2018-08-11T19:36:34.520Z,26.23
2018-08-11T19:39:04.191Z,26.25
2018-08-11T19:41:32.367Z,26.03
2018-08-11T19:44:00.707Z,25.62
2018-08-11T19:46:28.963Z,26.03
2018-08-11T19:48:57.001Z,26.08
2018-08-11T19:51:25.245Z,25.98
2018-08-11T19:53:54.070Z,25.85
2018-08-11T19:56:22.141Z,25.94
2018-08-11T19:58:50.264Z,25.96
2018-08-11T20:01:18.457Z,26.00
2018-08-11T20:03:46.574Z,25.69
2018-08-11T20:06:14.731Z,25.77
2018-08-11T20:08:42.803Z,25.81
2018-08-11T20:11:10.915Z,25.76
2018-08-11T20:13:38.982Z,25.51
2018-08-11T20:16:07.259Z,25.51
2018-08-11T20:18:35.346Z,25.60
2018-08-11T20:21:03.411Z,25.65
2018-08-11T20:23:31.551Z,25.55
2018-08-11T20:25:59.616Z,25.45
2018-08-11T20:28:27.700Z,25.42
2018-08-11T20:30:55.856Z,25.23
2018-08-11T20:33:24.070Z,25.31
2018-08-11T20:35:52.116Z,25.25
2018-08-11T20:38:29.006Z,24.88
2018-08-11T20:41:12.278Z,24.43
2018-08-11T20:43:40.514Z,24.71
2018-08-11T20:46:08.625Z,24.28
2018-08-11T20:48:36.685Z,24.19
2018-08-11T20:51:04.779Z,24.05
2018-08-11T20:53:32.878Z,24.07
2018-08-11T20:56:01.366Z,24.37
2018-08-11T20:58:29.477Z,24.54
2018-08-11T21:00:57.583Z,24.42
2018-08-11T21:03:25.691Z,24.23
2018-08-11T21:05:54.216Z,24.43
2018-08-11T21:08:22.356Z,24.34
2018-08-11T21:10:50.844Z,24.12
2018-08-11T21:13:18.935Z,24.45
2018-08-11T21:15:46.987Z,24.40
2018-08-11T21:18:15.017Z,24.31
2018-08-11T21:20:43.092Z,24.09
2018-08-11T21:23:11.239Z,24.27
2018-08-11T21:25:39.408Z,24.15
2018-08-11T21:28:07.783Z,24.15
2018-08-11T21:30:35.890Z,24.15
2018-08-11T21:33:04.091Z,24.05
2018-08-11T21:35:32.153Z,23.98
2018-08-11T21:38:00.419Z,24.04
2018-08-11T21:40:28.468Z,23.90
2018-08-11T21:42:56.588Z,23.83
2018-08-11T21:45:24.669Z,23.69
2018-08-11T21:47:52.773Z,23.60
2018-08-11T21:50:20.802Z,23.62
2018-08-11T21:52:48.907Z,23.43
2018-08-11T21:55:16.975Z,23.68
2018-08-11T21:57:45.178Z,23.47
2018-08-11T22:00:23.805Z,23.53
2018-08-11T22:02:51.887Z,23.55
2018-08-11T22:05:20.048Z,23.27
2018-08-11T22:07:48.269Z,23.31
2018-08-11T22:10:16.499Z,23.20
2018-08-11T22:12:44.624Z,23.20
2018-08-11T22:15:15.682Z,23.16
2018-08-11T22:17:43.775Z,23.05
2018-08-11T22:20:11.867Z,23.14
2018-08-11T22:22:40.142Z,23.01
2018-08-11T22:25:09.722Z,23.02
2018-08-11T22:27:37.967Z,23.10
2018-08-11T22:30:06.720Z,23.02
2018-08-11T22:32:35.152Z,22.95
2018-08-11T22:35:04.065Z,22.84
2018-08-11T22:37:32.646Z,22.84
2018-08-11T22:40:00.897Z,22.63
2018-08-11T22:42:29.045Z,22.62
2018-08-11T22:44:57.117Z,22.72
2018-08-11T22:47:25.549Z,22.49
2018-08-11T22:49:53.487Z,22.46
2018-08-11T22:52:21.555Z,22.53
2018-08-11T22:54:49.625Z,22.44
2018-08-11T22:57:17.725Z,22.27
2018-08-11T22:59:45.808Z,22.30
2018-08-11T23:02:14.002Z,22.34
2018-08-11T23:04:42.434Z,22.25
2018-08-11T23:07:10.554Z,22.33
2018-08-11T23:09:38.892Z,22.28
2018-08-11T23:12:07.402Z,22.15
2018-08-11T23:14:35.669Z,21.97
2018-08-11T23:17:03.762Z,22.10
2018-08-11T23:19:31.912Z,21.96
2018-08-11T23:22:00.108Z,21.97
2018-08-11T23:24:28.337Z,21.90
2018-08-11T23:26:56.459Z,21.84
2018-08-11T23:29:25.559Z,21.87
2018-08-11T23:31:53.660Z,21.86
2018-08-11T23:34:21.715Z,21.70
2018-08-11T23:36:49.908Z,21.24
2018-08-11T23:39:18.241Z,21.21
2018-08-11T23:41:46.579Z,21.14
2018-08-11T23:44:14.937Z,21.32
2018-08-11T23:46:43.029Z,21.06
2018-08-11T23:49:11.253Z,20.85
2018-08-11T23:51:39.309Z,20.94
2018-08-11T23:54:07.652Z,21.03
2018-08-11T23:56:35.703Z,20.79
2018-08-11T23:59:03.777Z,20.95
